createdAt,value
2023-02-21T00:00:32.894Z,8.93
2023-02-21T00:03:17.907Z,9.68
2023-02-21T00:06:03.144Z,12.00
2023-02-21T00:08:48.446Z,9.18
2023-02-21T00:11:33.272Z,9.95
2023-02-21T00:14:18.516Z,11.13
2023-02-21T00:17:04.595Z,8.50
2023-02-21T00:19:49.790Z,10.85
2023-02-21T00:22:34.591Z,10.57
2023-02-21T00:25:19.600Z,10.65
2023-02-21T00:28:04.527Z,11.40
2023-02-21T00:30:49.799Z,11.05
2023-02-21T00:33:35.096Z,9.52
2023-02-21T00:36:20.256Z,13.07
2023-02-21T00:39:05.279Z,12.00
2023-02-21T00:41:50.453Z,12.20
2023-02-21T00:44:35.697Z,11.90
2023-02-21T00:47:20.916Z,12.38
2023-02-21T00:50:06.167Z,13.20
2023-02-21T00:52:51.166Z,11.98
2023-02-21T00:55:36.196Z,14.60
2023-02-21T00:58:21.420Z,13.70
2023-02-21T01:01:06.444Z,14.27
2023-02-21T01:03:51.810Z,13.27
2023-02-21T01:06:38.066Z,12.95
2023-02-21T01:09:23.018Z,14.48
2023-02-21T01:12:08.265Z,13.73
2023-02-21T01:14:53.247Z,14.73
2023-02-21T01:17:38.432Z,14.68
2023-02-21T01:20:25.194Z,16.02
2023-02-21T01:23:10.127Z,16.92
2023-02-21T01:25:55.319Z,15.35
2023-02-21T01:28:40.470Z,16.75
2023-02-21T01:31:25.724Z,17.38
2023-02-21T01:34:10.892Z,14.05
2023-02-21T01:37:00.049Z,12.38
2023-02-21T01:39:45.304Z,17.17
2023-02-21T01:42:30.461Z,15.38
2023-02-21T01:45:40.787Z,14.15
2023-02-21T01:48:36.289Z,15.25
2023-02-21T01:51:23.286Z,15.30
2023-02-21T01:54:09.481Z,18.25
2023-02-21T01:56:58.320Z,14.00
2023-02-21T01:59:45.593Z,13.98
2023-02-21T02:02:45.894Z,16.25
2023-02-21T02:05:32.421Z,14.80
2023-02-21T02:08:17.552Z,13.32
2023-02-21T02:11:03.840Z,14.45
2023-02-21T02:13:53.665Z,12.82
2023-02-21T02:16:37.008Z,13.27
2023-02-21T02:19:18.831Z,14.23
2023-02-21T02:21:48.330Z,16.42
2023-02-21T02:24:17.951Z,15.07
2023-02-21T02:27:20.093Z,17.23
2023-02-21T02:29:52.779Z,14.70
2023-02-21T02:32:37.634Z,13.70
2023-02-21T02:35:39.741Z,15.85
2023-02-21T02:38:31.105Z,16.92
2023-02-21T02:41:11.733Z,12.00
2023-02-21T02:43:51.543Z,17.70
2023-02-21T02:46:23.645Z,18.50
2023-02-21T02:49:07.974Z,13.95
2023-02-21T02:51:35.621Z,15.18
2023-02-21T02:54:04.639Z,13.00
2023-02-21T02:56:33.679Z,17.52
2023-02-21T02:59:20.538Z,14.77
2023-02-21T03:01:56.781Z,14.48
2023-02-21T03:04:37.082Z,13.70
2023-02-21T03:07:25.829Z,15.07
2023-02-21T03:10:12.124Z,15.32
2023-02-21T03:12:57.277Z,14.10
2023-02-21T03:15:26.989Z,14.93
2023-02-21T03:18:04.553Z,14.82
2023-02-21T03:20:33.038Z,14.50
2023-02-21T03:23:02.744Z,14.13
2023-02-21T03:25:32.395Z,15.95
2023-02-21T03:28:02.269Z,12.60
2023-02-21T03:30:35.937Z,13.70
2023-02-21T03:33:02.767Z,14.32
2023-02-21T03:35:30.461Z,15.48
2023-02-21T03:37:58.707Z,14.68
2023-02-21T03:40:29.901Z,14.10
2023-02-21T03:43:00.446Z,13.48
2023-02-21T03:45:30.467Z,13.38
2023-02-21T03:48:06.229Z,12.85
2023-02-21T03:50:34.804Z,15.82
2023-02-21T03:53:01.434Z,13.05
2023-02-21T03:55:29.473Z,15.57
2023-02-21T03:57:58.806Z,12.43
2023-02-21T04:00:25.462Z,16.00
2023-02-21T04:02:54.364Z,15.93
2023-02-21T04:05:29.660Z,13.35
2023-02-21T04:07:56.873Z,13.55
2023-02-21T04:10:23.377Z,14.30
2023-02-21T04:12:49.964Z,13.02
2023-02-21T04:15:16.886Z,16.23
2023-02-21T04:17:44.243Z,14.15
2023-02-21T04:20:10.901Z,14.82
2023-02-21T04:22:47.521Z,16.15
2023-02-21T04:25:17.568Z,14.40
2023-02-21T04:27:55.000Z,16.70
2023-02-21T04:30:21.675Z,16.40
2023-02-21T04:32:48.853Z,16.17
2023-02-21T04:35:16.511Z,13.55
2023-02-21T04:37:46.337Z,15.50
2023-02-21T04:40:13.400Z,13.10
2023-02-21T04:42:40.055Z,16.52
2023-02-21T04:45:07.413Z,15.48
2023-02-21T04:47:36.167Z,12.73
2023-02-21T04:50:03.069Z,14.02
2023-02-21T04:52:29.706Z,14.20
2023-02-21T04:54:56.316Z,13.80
2023-02-21T04:57:23.348Z,14.57
2023-02-21T04:59:56.970Z,14.30
2023-02-21T05:02:23.561Z,15.02
2023-02-21T05:04:50.143Z,15.57
2023-02-21T05:07:16.721Z,15.07
2023-02-21T05:09:43.275Z,13.65
2023-02-21T05:12:11.980Z,16.45
2023-02-21T05:14:39.406Z,16.30
2023-02-21T05:17:06.785Z,14.63
2023-02-21T05:19:34.266Z,13.55
2023-02-21T05:22:02.974Z,16.98
2023-02-21T05:24:30.800Z,15.10
2023-02-21T05:26:58.287Z,15.35
2023-02-21T05:29:25.688Z,16.88
2023-02-21T05:31:52.342Z,16.75
2023-02-21T05:34:19.737Z,16.98
2023-02-21T05:36:46.716Z,15.25
2023-02-21T05:39:13.449Z,17.30
2023-02-21T05:41:49.189Z,17.35
2023-02-21T05:44:15.897Z,15.18
2023-02-21T05:46:42.493Z,15.48
2023-02-21T05:49:09.294Z,15.52
2023-02-21T05:51:38.697Z,15.68
2023-02-21T05:54:07.232Z,13.88
2023-02-21T05:56:41.714Z,16.50
2023-02-21T05:59:09.028Z,13.00
2023-02-21T06:01:36.197Z,14.70
2023-02-21T06:04:02.977Z,13.40
2023-02-21T06:06:29.508Z,16.23
2023-02-21T06:08:56.162Z,16.02
2023-02-21T06:11:33.231Z,15.82
2023-02-21T06:14:03.422Z,12.85
2023-02-21T06:16:38.477Z,16.40
2023-02-21T06:19:07.285Z,15.65
2023-02-21T06:21:35.625Z,16.65
2023-02-21T06:24:03.487Z,16.42
2023-02-21T06:26:30.318Z,15.32
2023-02-21T06:28:56.896Z,13.93
2023-02-21T06:31:23.931Z,14.32
2023-02-21T06:33:51.009Z,12.32
2023-02-21T06:36:21.299Z,12.38
2023-02-21T06:38:51.170Z,13.38
2023-02-21T06:41:19.880Z,13.50
2023-02-21T06:43:46.409Z,14.30
2023-02-21T06:46:18.535Z,13.73
2023-02-21T06:48:45.301Z,13.38
2023-02-21T06:51:14.578Z,13.60
2023-02-21T06:53:42.475Z,12.88
2023-02-21T06:56:09.522Z,12.85
2023-02-21T06:58:36.465Z,14.60
2023-02-21T07:01:03.346Z,13.80
2023-02-21T07:03:30.015Z,13.50
2023-02-21T07:05:56.681Z,14.73
2023-02-21T07:08:23.245Z,12.95
2023-02-21T07:10:49.853Z,12.35
2023-02-21T07:13:16.423Z,13.80
2023-02-21T07:15:42.954Z,15.43
2023-02-21T07:18:09.491Z,14.98
2023-02-21T07:20:36.020Z,12.82
2023-02-21T07:23:02.550Z,11.32
2023-02-21T07:25:30.270Z,14.50
2023-02-21T07:27:56.858Z,13.02
2023-02-21T07:30:23.541Z,13.25
2023-02-21T07:32:50.149Z,15.40
2023-02-21T07:35:16.916Z,11.55
2023-02-21T07:37:43.489Z,14.65
2023-02-21T07:40:10.453Z,14.50
2023-02-21T07:42:36.985Z,12.68
2023-02-21T07:45:03.885Z,12.77
2023-02-21T07:47:30.439Z,14.35
2023-02-21T07:49:57.059Z,14.57
2023-02-21T07:52:23.594Z,11.52
2023-02-21T07:54:50.264Z,11.57
2023-02-21T07:57:17.799Z,13.90
2023-02-21T07:59:44.482Z,13.98
2023-02-21T08:02:12.035Z,13.32
2023-02-21T08:04:38.624Z,11.88
2023-02-21T08:07:05.380Z,12.70
2023-02-21T08:09:33.288Z,13.32
2023-02-21T08:12:00.372Z,11.88
2023-02-21T08:14:27.157Z,11.50
2023-02-21T08:16:53.756Z,9.95
2023-02-21T08:19:20.357Z,12.13
2023-02-21T08:21:50.383Z,11.95
2023-02-21T08:24:17.787Z,11.57
2023-02-21T08:26:45.506Z,10.25
2023-02-21T08:29:13.871Z,11.60
2023-02-21T08:31:42.486Z,12.07
2023-02-21T08:34:09.355Z,11.13
2023-02-21T08:36:41.029Z,11.32
2023-02-21T08:39:08.570Z,10.65
2023-02-21T08:41:46.778Z,10.02
2023-02-21T08:44:18.479Z,9.75
2023-02-21T08:46:45.053Z,10.40
2023-02-21T08:49:11.690Z,9.75
2023-02-21T08:51:39.061Z,11.50
2023-02-21T08:54:06.761Z,11.55
2023-02-21T08:56:34.156Z,11.45
2023-02-21T08:59:00.991Z,9.90
2023-02-21T09:01:34.148Z,8.68
2023-02-21T09:04:01.925Z,11.07
2023-02-21T09:06:28.511Z,10.32
2023-02-21T09:08:55.269Z,12.10
2023-02-21T09:11:21.805Z,10.60
2023-02-21T09:13:48.362Z,11.32
2023-02-21T09:16:15.104Z,11.30
2023-02-21T09:18:41.705Z,11.93
2023-02-21T09:21:08.299Z,13.15
2023-02-21T09:23:34.880Z,12.80
2023-02-21T09:26:01.498Z,11.43
2023-02-21T09:28:29.377Z,11.98
2023-02-21T09:30:55.997Z,11.27
2023-02-21T09:33:24.824Z,11.65
2023-02-21T09:35:51.772Z,10.75
2023-02-21T09:38:18.418Z,10.57
2023-02-21T09:40:56.661Z,12.13
2023-02-21T09:43:41.086Z,12.07
2023-02-21T09:46:16.312Z,12.32
2023-02-21T09:48:44.088Z,9.73
2023-02-21T09:51:13.422Z,10.90
2023-02-21T09:53:44.352Z,10.30
2023-02-21T09:56:25.474Z,9.13
2023-02-21T09:58:52.049Z,10.25
2023-02-21T10:01:53.054Z,10.38
2023-02-21T10:04:33.111Z,10.02
2023-02-21T10:07:09.976Z,10.27
2023-02-21T10:09:49.046Z,9.63
2023-02-21T10:12:30.957Z,11.70
2023-02-21T10:15:16.185Z,11.25
2023-02-21T10:18:02.867Z,9.65
2023-02-21T10:20:38.818Z,9.30
2023-02-21T10:23:22.554Z,10.80
2023-02-21T10:25:51.770Z,10.30
2023-02-21T10:28:21.317Z,11.07
2023-02-21T10:30:50.345Z,10.57
2023-02-21T10:33:17.227Z,9.10
2023-02-21T10:35:44.123Z,9.85
2023-02-21T10:38:18.962Z,9.50
2023-02-21T10:40:51.145Z,11.52
2023-02-21T10:43:20.330Z,9.70
2023-02-21T10:46:17.982Z,9.60
2023-02-21T10:48:47.166Z,9.35
2023-02-21T10:51:28.053Z,10.05
2023-02-21T10:54:17.299Z,11.95
2023-02-21T10:56:44.213Z,11.05
2023-02-21T10:59:22.337Z,11.88
2023-02-21T11:01:50.890Z,11.57
2023-02-21T11:04:20.474Z,11.77
2023-02-21T11:06:57.046Z,10.90
2023-02-21T11:09:31.113Z,10.18
2023-02-21T11:12:00.904Z,11.25
2023-02-21T11:14:27.859Z,12.48
2023-02-21T11:17:13.883Z,10.52
2023-02-21T11:19:52.643Z,11.65
2023-02-21T11:22:42.560Z,11.23
2023-02-21T11:25:12.181Z,11.50
2023-02-21T11:27:39.311Z,13.00
2023-02-21T11:30:22.374Z,10.77
2023-02-21T11:32:53.482Z,11.05
2023-02-21T11:35:20.616Z,9.45
2023-02-21T11:37:50.130Z,10.30
2023-02-21T11:40:25.957Z,9.45
2023-02-21T11:43:10.871Z,9.88
2023-02-21T11:45:40.853Z,9.48
2023-02-21T11:48:15.785Z,10.30
2023-02-21T11:50:49.532Z,9.48
2023-02-21T11:53:27.742Z,8.07
2023-02-21T11:56:16.191Z,9.18
2023-02-21T11:59:21.832Z,7.82
2023-02-21T12:02:19.971Z,8.25
2023-02-21T12:04:52.609Z,8.15
2023-02-21T12:07:29.773Z,8.52
2023-02-21T12:10:33.749Z,8.00
2023-02-21T12:13:12.660Z,7.90
2023-02-21T12:15:56.947Z,7.65
2023-02-21T12:18:26.140Z,9.05
2023-02-21T12:21:12.588Z,7.50
2023-02-21T12:23:54.816Z,8.45
2023-02-21T12:29:29.721Z,8.63
2023-02-21T12:32:16.189Z,7.13
2023-02-21T12:35:01.191Z,7.70
2023-02-21T12:37:36.640Z,7.05
2023-02-21T12:40:33.291Z,7.63
2023-02-21T12:43:28.292Z,9.07
2023-02-21T12:46:18.263Z,8.02
2023-02-21T12:49:10.011Z,8.85
2023-02-21T12:51:51.304Z,9.95
2023-02-21T12:54:26.422Z,7.45
2023-02-21T12:57:02.757Z,6.72
2023-02-21T12:59:45.968Z,7.18
2023-02-21T13:02:27.044Z,7.43
2023-02-21T13:05:14.248Z,6.35
2023-02-21T13:08:02.015Z,5.60
2023-02-21T13:10:34.916Z,7.53
2023-02-21T13:13:15.887Z,7.18
2023-02-21T13:15:46.747Z,7.90
2023-02-21T13:18:21.957Z,8.52
2023-02-21T13:21:05.987Z,9.52
2023-02-21T13:23:58.242Z,6.18
2023-02-21T13:29:27.248Z,6.38
2023-02-21T13:32:03.013Z,6.18
2023-02-21T13:34:36.700Z,8.60
2023-02-21T13:37:07.081Z,8.80
2023-02-21T13:39:37.516Z,6.90
2023-02-21T13:42:11.221Z,9.20
2023-02-21T13:44:49.138Z,8.07
2023-02-21T13:47:21.691Z,8.05
2023-02-21T13:49:58.849Z,7.10
2023-02-21T13:52:36.627Z,9.73
2023-02-21T13:55:15.383Z,7.20
2023-02-21T13:57:54.160Z,7.63
2023-02-21T14:00:29.729Z,6.63
2023-02-21T14:03:04.123Z,7.35
2023-02-21T14:05:49.061Z,8.38
2023-02-21T14:08:40.040Z,6.55
2023-02-21T14:11:06.642Z,8.23
2023-02-21T14:13:47.849Z,9.98
2023-02-21T14:16:15.233Z,8.53
2023-02-21T14:18:47.250Z,7.70
2023-02-21T14:21:22.154Z,7.88
2023-02-21T14:24:09.750Z,5.35
2023-02-21T14:26:45.547Z,6.50
2023-02-21T14:29:16.649Z,9.23
2023-02-21T14:31:49.125Z,5.20
2023-02-21T14:34:22.738Z,4.75
2023-02-21T14:36:51.237Z,6.78
2023-02-21T14:39:18.452Z,10.30
2023-02-21T14:41:44.931Z,6.80
2023-02-21T14:44:34.938Z,9.80
2023-02-21T14:47:13.415Z,8.98
2023-02-21T14:50:13.903Z,5.55
2023-02-21T14:52:52.313Z,7.07
2023-02-21T14:55:18.836Z,8.55
2023-02-21T14:58:12.660Z,7.47
2023-02-21T15:00:46.513Z,6.60
2023-02-21T15:03:20.695Z,5.80
2023-02-21T15:05:50.284Z,9.98
2023-02-21T15:08:18.056Z,7.72
2023-02-21T15:10:49.189Z,9.65
2023-02-21T15:13:23.987Z,9.53
2023-02-21T15:16:12.445Z,9.15
2023-02-21T15:18:41.833Z,6.85
2023-02-21T15:21:20.893Z,7.75
2023-02-21T15:23:59.982Z,8.63
2023-02-21T15:26:31.104Z,9.55
2023-02-21T15:29:10.650Z,10.80
2023-02-21T15:31:42.488Z,13.38
2023-02-21T15:34:18.472Z,13.68
2023-02-21T15:37:14.121Z,11.98
2023-02-21T15:39:46.532Z,12.23
2023-02-21T15:42:16.007Z,11.75
2023-02-21T15:44:49.915Z,9.07
2023-02-21T15:47:21.680Z,10.32
2023-02-21T15:49:50.080Z,10.73
2023-02-21T15:52:36.040Z,9.90
2023-02-21T15:55:32.207Z,12.63
2023-02-21T15:58:06.048Z,11.75
2023-02-21T16:00:42.448Z,10.90
2023-02-21T16:03:36.456Z,11.25
2023-02-21T16:06:15.197Z,7.97
2023-02-21T16:08:58.862Z,10.13
2023-02-21T16:11:43.731Z,10.20
2023-02-21T16:14:38.508Z,9.73
2023-02-21T16:17:07.260Z,10.82
2023-02-21T16:19:35.987Z,12.65
2023-02-21T16:22:21.813Z,10.13
2023-02-21T16:24:48.379Z,9.63
2023-02-21T16:27:17.468Z,11.27
2023-02-21T16:29:44.016Z,5.88
2023-02-21T16:32:19.502Z,8.18
2023-02-21T16:34:46.717Z,7.03
2023-02-21T16:37:14.847Z,10.80
2023-02-21T16:39:42.793Z,8.57
2023-02-21T16:42:09.355Z,8.00
2023-02-21T16:44:35.958Z,9.93
2023-02-21T16:47:02.550Z,9.55
2023-02-21T16:49:29.583Z,7.75
2023-02-21T16:51:56.140Z,7.00
2023-02-21T16:54:22.796Z,12.80
2023-02-21T16:56:52.145Z,10.07
2023-02-21T16:59:21.308Z,8.60
2023-02-21T17:01:48.236Z,10.40
2023-02-21T17:04:23.974Z,8.23
2023-02-21T17:06:59.088Z,8.77
2023-02-21T17:09:27.716Z,7.53
2023-02-21T17:11:55.236Z,7.70
2023-02-21T17:14:22.343Z,8.27
2023-02-21T17:16:48.931Z,6.60
2023-02-21T17:19:17.798Z,9.65
2023-02-21T17:21:45.132Z,7.28
2023-02-21T17:24:13.607Z,8.00
2023-02-21T17:26:40.839Z,11.43
2023-02-21T17:29:09.170Z,10.95
2023-02-21T17:31:36.073Z,8.27
2023-02-21T17:34:03.409Z,7.47
2023-02-21T17:36:30.583Z,8.27
2023-02-21T17:38:58.993Z,7.28
2023-02-21T17:41:26.857Z,6.47
2023-02-21T17:43:53.698Z,7.57
2023-02-21T17:46:21.090Z,7.95
2023-02-21T17:48:48.023Z,7.28
2023-02-21T17:51:24.173Z,6.45
2023-02-21T17:53:51.768Z,6.30
2023-02-21T17:56:20.868Z,7.07
2023-02-21T17:58:48.084Z,8.93
2023-02-21T18:01:18.575Z,7.88
2023-02-21T18:03:47.126Z,7.45
2023-02-21T18:06:15.331Z,6.20
2023-02-21T18:08:44.824Z,10.68
2023-02-21T18:11:13.211Z,9.88
2023-02-21T18:13:40.537Z,7.25
2023-02-21T18:16:07.404Z,6.40
2023-02-21T18:18:34.890Z,7.07
2023-02-21T18:21:02.498Z,8.73
2023-02-21T18:23:30.482Z,6.88
2023-02-21T18:26:00.236Z,7.90
2023-02-21T18:28:26.870Z,7.18
2023-02-21T18:30:54.787Z,7.18
2023-02-21T18:33:26.997Z,7.38
2023-02-21T18:35:58.049Z,5.78
2023-02-21T18:38:25.900Z,8.07
2023-02-21T18:40:54.577Z,7.18
2023-02-21T18:43:27.327Z,6.93
2023-02-21T18:45:55.789Z,7.55
2023-02-21T18:48:23.907Z,7.82
2023-02-21T18:50:50.807Z,8.30
2023-02-21T18:53:18.264Z,5.70
2023-02-21T18:55:44.945Z,7.30
2023-02-21T18:58:11.900Z,6.50
2023-02-21T19:00:40.803Z,6.38
2023-02-21T19:03:09.116Z,11.18
2023-02-21T19:05:35.883Z,7.63
2023-02-21T19:08:02.481Z,7.93
2023-02-21T19:10:29.725Z,7.95
2023-02-21T19:13:01.822Z,10.15
2023-02-21T19:15:32.576Z,9.80
2023-02-21T19:17:59.308Z,12.90
2023-02-21T19:20:25.996Z,7.03
2023-02-21T19:22:52.601Z,8.63
2023-02-21T19:25:19.350Z,7.88
2023-02-21T19:27:46.000Z,8.50
2023-02-21T19:30:13.555Z,9.20
2023-02-21T19:32:40.242Z,8.13
2023-02-21T19:35:08.325Z,9.02
2023-02-21T19:37:36.105Z,8.98
2023-02-21T19:40:06.845Z,8.57
2023-02-21T19:42:35.095Z,8.27
2023-02-21T19:45:01.757Z,11.48
2023-02-21T19:47:29.583Z,11.18
2023-02-21T19:49:56.411Z,7.32
2023-02-21T19:52:23.078Z,8.38
2023-02-21T19:54:49.672Z,7.30
2023-02-21T19:57:16.291Z,9.73
2023-02-21T19:59:42.878Z,10.82
2023-02-21T20:02:12.107Z,7.07
2023-02-21T20:04:39.129Z,11.00
2023-02-21T20:07:05.663Z,10.27
2023-02-21T20:09:32.328Z,8.55
2023-02-21T20:11:59.302Z,10.18
2023-02-21T20:14:26.790Z,10.15
2023-02-21T20:16:53.743Z,8.32
2023-02-21T20:19:20.846Z,11.35
2023-02-21T20:21:47.412Z,8.35
2023-02-21T20:24:14.023Z,9.25
2023-02-21T20:26:40.667Z,10.85
2023-02-21T20:29:07.347Z,9.95
2023-02-21T20:31:37.229Z,8.88
2023-02-21T20:34:05.475Z,9.57
2023-02-21T20:36:35.269Z,11.25
2023-02-21T20:39:02.608Z,10.93
2023-02-21T20:41:31.106Z,8.30
2023-02-21T20:43:58.995Z,9.40
2023-02-21T20:46:26.409Z,11.70
2023-02-21T20:48:53.116Z,10.50
2023-02-21T20:51:34.604Z,11.73
2023-02-21T20:54:01.742Z,9.68
2023-02-21T20:56:36.613Z,12.18
2023-02-21T20:59:15.706Z,10.75
2023-02-21T21:01:48.144Z,8.07
2023-02-21T21:04:22.010Z,11.15
2023-02-21T21:06:49.317Z,13.15
2023-02-21T21:09:17.851Z,13.73
2023-02-21T21:11:45.124Z,13.80
2023-02-21T21:14:16.326Z,13.43
2023-02-21T21:16:43.391Z,14.05
2023-02-21T21:19:10.014Z,12.38
2023-02-21T21:21:37.859Z,13.02
2023-02-21T21:24:07.114Z,13.98
2023-02-21T21:26:34.258Z,14.68
2023-02-21T21:29:01.492Z,12.13
2023-02-21T21:31:28.181Z,12.95
2023-02-21T21:33:56.383Z,15.93
2023-02-21T21:36:23.152Z,12.48
2023-02-21T21:38:49.702Z,14.00
2023-02-21T21:41:16.630Z,13.68
2023-02-21T21:43:44.129Z,14.85
2023-02-21T21:46:12.492Z,15.60
2023-02-21T21:48:43.831Z,13.60
2023-02-21T21:51:11.630Z,12.07
2023-02-21T21:53:40.032Z,16.15
2023-02-21T21:56:08.028Z,13.77
2023-02-21T21:58:34.793Z,14.30
2023-02-21T22:01:05.288Z,13.88
2023-02-21T22:03:31.960Z,13.75
2023-02-21T22:06:00.550Z,12.32
2023-02-21T22:08:28.638Z,11.27
2023-02-21T22:10:55.184Z,13.68
2023-02-21T22:13:21.851Z,13.48
2023-02-21T22:15:48.831Z,13.32
2023-02-21T22:18:19.475Z,11.73
2023-02-21T22:20:49.743Z,13.68
2023-02-21T22:23:18.095Z,13.80
2023-02-21T22:25:44.826Z,14.23
2023-02-21T22:28:13.309Z,12.63
2023-02-21T22:30:40.487Z,14.60
2023-02-21T22:33:09.130Z,14.75
2023-02-21T22:35:36.072Z,15.50
2023-02-21T22:38:02.695Z,14.10
2023-02-21T22:40:30.867Z,16.50
2023-02-21T22:42:59.439Z,12.93
2023-02-21T22:45:27.500Z,15.77
2023-02-21T22:47:55.842Z,13.18
2023-02-21T22:50:24.385Z,18.60
2023-02-21T22:52:57.289Z,15.95
2023-02-21T22:55:25.693Z,15.00
2023-02-21T22:57:54.139Z,12.45
2023-02-21T23:00:26.595Z,13.65
2023-02-21T23:02:53.340Z,14.38
2023-02-21T23:05:21.648Z,15.23
2023-02-21T23:07:51.175Z,15.50
2023-02-21T23:10:23.528Z,19.55
2023-02-21T23:12:52.637Z,19.50
2023-02-21T23:15:20.464Z,15.05
2023-02-21T23:17:49.057Z,22.08
2023-02-21T23:20:22.074Z,24.33
2023-02-21T23:22:54.601Z,14.10
2023-02-21T23:25:35.060Z,20.05
2023-02-21T23:28:08.245Z,22.45
2023-02-21T23:30:43.549Z,17.25
2023-02-21T23:33:18.584Z,16.05
2023-02-21T23:35:47.633Z,23.58
2023-02-21T23:38:17.006Z,20.73
2023-02-21T23:40:49.580Z,21.30
2023-02-21T23:43:17.912Z,22.40
2023-02-21T23:45:48.237Z,16.02
2023-02-21T23:48:15.496Z,21.65
2023-02-21T23:50:46.974Z,18.55
2023-02-21T23:53:17.035Z,20.70
2023-02-21T23:55:46.414Z,20.25
2023-02-21T23:58:17.830Z,23.02
